createdAt,value
2022-10-30T00:01:26.494Z,13.90
2022-10-30T00:04:00.334Z,13.90
2022-10-30T00:06:33.817Z,13.80
2022-10-30T00:09:07.862Z,13.80
2022-10-30T00:11:42.216Z,13.80
2022-10-30T00:14:16.532Z,13.70
2022-10-30T00:16:52.373Z,13.70
2022-10-30T00:19:25.905Z,13.60
2022-10-30T00:24:34.798Z,13.50
2022-10-30T00:27:08.842Z,13.50
2022-10-30T00:29:42.800Z,13.40
2022-10-30T00:32:19.479Z,13.40
2022-10-30T00:34:52.803Z,13.40
2022-10-30T00:37:24.778Z,13.30
2022-10-30T00:39:56.887Z,13.20
2022-10-30T00:42:31.917Z,13.20
2022-10-30T00:45:05.845Z,13.20
2022-10-30T00:47:43.066Z,13.20
2022-10-30T00:50:15.681Z,13.20
2022-10-30T00:52:53.810Z,13.20
2022-10-30T00:55:25.788Z,13.20
2022-10-30T00:57:57.805Z,13.20
2022-10-30T01:00:29.811Z,13.10
2022-10-30T01:03:06.456Z,13.10
2022-10-30T01:05:39.857Z,13.00
2022-10-30T01:08:13.897Z,13.00
2022-10-30T01:10:45.794Z,13.00
2022-10-30T01:13:17.820Z,13.00
2022-10-30T01:15:55.340Z,13.00
2022-10-30T01:18:37.761Z,13.00
2022-10-30T01:21:15.934Z,13.00
2022-10-30T01:23:51.947Z,13.00
2022-10-30T01:26:28.720Z,12.90
2022-10-30T01:29:08.319Z,12.90
2022-10-30T01:31:44.721Z,12.90
2022-10-30T01:34:23.368Z,12.90
2022-10-30T01:36:59.593Z,12.80
2022-10-30T01:39:35.470Z,12.80
2022-10-30T01:42:12.688Z,12.70
2022-10-30T01:44:44.821Z,12.70
2022-10-30T01:47:23.649Z,12.70
2022-10-30T01:50:15.954Z,12.70
2022-10-30T01:52:52.349Z,12.80
2022-10-30T01:55:28.382Z,12.80
2022-10-30T01:58:02.732Z,12.70
2022-10-30T02:00:34.844Z,12.70
2022-10-30T02:03:08.907Z,12.60
2022-10-30T02:05:45.887Z,12.60
2022-10-30T02:08:19.802Z,12.50
2022-10-30T02:10:54.312Z,12.50
2022-10-30T02:13:39.909Z,12.40
2022-10-30T02:16:14.826Z,12.40
2022-10-30T02:18:49.838Z,12.30
2022-10-30T02:21:26.458Z,12.30
2022-10-30T02:23:59.629Z,12.30
2022-10-30T02:26:32.856Z,12.30
2022-10-30T02:29:08.785Z,12.30
2022-10-30T02:31:40.857Z,12.30
2022-10-30T02:34:14.896Z,12.30
2022-10-30T02:36:51.498Z,12.30
2022-10-30T02:39:25.808Z,12.20
2022-10-30T02:42:02.104Z,12.20
2022-10-30T02:44:35.849Z,12.20
2022-10-30T02:47:09.903Z,12.10
2022-10-30T02:49:43.833Z,12.10
2022-10-30T02:52:20.492Z,12.10
2022-10-30T02:54:53.822Z,12.10
2022-10-30T02:57:27.844Z,12.10
2022-10-30T02:59:59.911Z,12.10
2022-10-30T03:02:33.894Z,12.10
2022-10-30T03:05:08.206Z,12.10
2022-10-30T03:07:44.433Z,12.00
2022-10-30T03:10:17.978Z,12.00
2022-10-30T03:12:51.827Z,12.00
2022-10-30T03:15:25.796Z,12.00
2022-10-30T03:17:58.101Z,12.00
2022-10-30T03:20:31.845Z,12.00
2022-10-30T03:23:08.603Z,12.00
2022-10-30T03:25:41.820Z,12.00
2022-10-30T03:28:15.834Z,12.00
2022-10-30T03:30:50.159Z,12.00
2022-10-30T03:33:23.831Z,12.00
2022-10-30T03:35:57.967Z,12.00
2022-10-30T03:38:34.529Z,11.90
2022-10-30T03:41:08.031Z,11.90
2022-10-30T03:43:41.848Z,11.90
2022-10-30T03:46:15.854Z,11.90
2022-10-30T03:48:51.481Z,11.90
2022-10-30T03:51:24.847Z,11.80
2022-10-30T03:54:01.554Z,11.80
2022-10-30T03:56:34.854Z,11.80
2022-10-30T03:59:10.875Z,11.80
2022-10-30T04:01:47.047Z,11.80
2022-10-30T04:04:20.846Z,11.80
2022-10-30T04:06:54.835Z,11.80
2022-10-30T04:09:32.444Z,11.80
2022-10-30T04:12:05.828Z,11.80
2022-10-30T04:14:37.847Z,11.70
2022-10-30T04:17:11.840Z,11.70
2022-10-30T04:19:43.844Z,11.70
2022-10-30T04:22:17.834Z,11.70
2022-10-30T04:24:53.725Z,11.70
2022-10-30T04:27:27.874Z,11.70
2022-10-30T04:30:01.861Z,11.70
2022-10-30T04:32:36.879Z,11.70
2022-10-30T04:35:11.360Z,11.70
2022-10-30T04:37:44.816Z,11.70
2022-10-30T04:40:21.542Z,11.70
2022-10-30T04:43:00.996Z,11.70
2022-10-30T04:45:34.894Z,11.70
2022-10-30T04:48:09.925Z,11.70
2022-10-30T04:50:43.941Z,11.70
2022-10-30T04:53:19.568Z,11.70
2022-10-30T04:55:58.762Z,11.60
2022-10-30T04:58:33.922Z,11.60
2022-10-30T05:01:11.054Z,11.60
2022-10-30T05:03:46.201Z,11.60
2022-10-30T05:06:24.250Z,11.50
2022-10-30T05:08:58.062Z,11.40
2022-10-30T05:12:00.491Z,11.40
2022-10-30T05:14:39.920Z,11.40
2022-10-30T05:17:13.909Z,11.30
2022-10-30T05:19:47.838Z,11.30
2022-10-30T05:22:21.856Z,11.30
2022-10-30T05:24:55.852Z,11.30
2022-10-30T05:27:32.556Z,11.30
2022-10-30T05:30:05.922Z,11.30
2022-10-30T05:32:39.878Z,11.30
2022-10-30T05:35:13.960Z,11.30
2022-10-30T05:37:47.861Z,11.30
2022-10-30T05:40:21.869Z,11.30
2022-10-30T05:42:58.772Z,11.30
2022-10-30T05:45:33.374Z,11.30
2022-10-30T05:48:12.631Z,11.30
2022-10-30T05:50:51.657Z,11.30
2022-10-30T05:53:37.600Z,11.30
2022-10-30T05:56:11.136Z,11.30
2022-10-30T05:58:47.631Z,11.20
2022-10-30T06:01:21.363Z,11.20
2022-10-30T06:03:59.664Z,11.20
2022-10-30T06:06:34.231Z,11.20
2022-10-30T06:09:09.006Z,11.30
2022-10-30T06:12:12.604Z,11.30
2022-10-30T06:15:04.045Z,11.30
2022-10-30T06:17:38.650Z,11.30
2022-10-30T06:20:24.596Z,11.40
2022-10-30T06:23:26.810Z,11.30
2022-10-30T06:26:14.391Z,11.40
2022-10-30T06:28:51.208Z,11.40
2022-10-30T06:31:27.618Z,11.40
2022-10-30T06:34:00.984Z,11.40
2022-10-30T06:36:36.113Z,11.50
2022-10-30T06:39:11.490Z,11.50
2022-10-30T06:41:51.610Z,11.60
2022-10-30T06:44:31.644Z,11.80
2022-10-30T06:47:06.630Z,12.00
2022-10-30T06:49:40.988Z,12.20
2022-10-30T06:52:15.666Z,12.60
2022-10-30T06:54:51.420Z,12.90
2022-10-30T06:57:45.351Z,13.30
2022-10-30T07:00:32.064Z,13.70
2022-10-30T07:03:26.568Z,14.10
2022-10-30T07:05:59.535Z,14.60
2022-10-30T07:08:33.439Z,15.00
2022-10-30T07:11:09.146Z,15.20
2022-10-30T07:14:01.212Z,15.50
2022-10-30T07:16:52.387Z,15.80
2022-10-30T07:19:29.069Z,16.20
2022-10-30T07:22:04.224Z,16.40
2022-10-30T07:24:39.369Z,16.80
2022-10-30T07:27:24.244Z,17.20
2022-10-30T07:30:08.759Z,17.50
2022-10-30T07:33:02.464Z,17.80
2022-10-30T07:35:58.234Z,18.00
2022-10-30T07:38:44.725Z,18.10
2022-10-30T07:41:38.393Z,18.20
2022-10-30T07:44:40.908Z,18.40
2022-10-30T07:47:42.448Z,18.40
2022-10-30T07:50:38.726Z,18.70
2022-10-30T07:53:16.124Z,18.90
2022-10-30T07:55:52.119Z,19.00
2022-10-30T07:58:49.778Z,19.30
2022-10-30T08:01:45.329Z,19.60
2022-10-30T08:04:36.526Z,19.40
2022-10-30T08:07:28.552Z,19.00
2022-10-30T08:10:05.328Z,18.70
2022-10-30T08:12:40.764Z,18.60
2022-10-30T08:15:13.897Z,18.40
2022-10-30T08:17:48.196Z,18.30
2022-10-30T08:20:22.684Z,18.10
2022-10-30T08:22:56.215Z,18.00
2022-10-30T08:25:36.250Z,17.90
2022-10-30T08:28:11.900Z,17.80
2022-10-30T08:30:47.435Z,17.60
2022-10-30T08:33:24.597Z,17.50
2022-10-30T08:36:04.519Z,17.40
2022-10-30T08:38:38.959Z,17.30
2022-10-30T08:41:22.103Z,17.40
2022-10-30T08:43:59.340Z,17.60
2022-10-30T08:46:41.914Z,17.90
2022-10-30T08:49:16.849Z,18.30
2022-10-30T08:51:57.788Z,18.60
2022-10-30T08:54:29.966Z,19.00
2022-10-30T08:57:07.391Z,19.30
2022-10-30T08:59:41.331Z,19.60
2022-10-30T09:02:20.068Z,19.90
2022-10-30T09:05:23.596Z,20.30
2022-10-30T09:08:28.977Z,20.60
2022-10-30T09:11:12.352Z,21.00
2022-10-30T09:13:48.806Z,21.20
2022-10-30T09:16:21.744Z,21.40
2022-10-30T09:18:54.286Z,21.70
2022-10-30T09:21:29.394Z,21.90
2022-10-30T09:24:01.451Z,22.00
2022-10-30T09:26:41.477Z,22.10
2022-10-30T09:29:20.866Z,22.20
2022-10-30T09:32:02.441Z,22.30
2022-10-30T09:34:38.484Z,22.40
2022-10-30T09:37:26.919Z,22.60
2022-10-30T09:40:04.723Z,22.80
2022-10-30T09:42:40.059Z,22.90
2022-10-30T09:45:30.303Z,23.10
2022-10-30T09:48:10.347Z,23.20
2022-10-30T09:50:59.698Z,23.30
2022-10-30T09:53:33.126Z,23.30
2022-10-30T09:56:15.311Z,23.30
2022-10-30T09:58:51.484Z,23.40
2022-10-30T10:01:28.946Z,23.40
2022-10-30T10:04:10.958Z,23.60
2022-10-30T10:06:48.051Z,23.70
2022-10-30T10:09:44.425Z,23.70
2022-10-30T10:12:31.623Z,23.70
2022-10-30T10:15:07.826Z,23.70
2022-10-30T10:17:42.470Z,23.70
2022-10-30T10:20:16.854Z,23.70
2022-10-30T10:22:49.695Z,23.70
2022-10-30T10:25:23.216Z,23.60
2022-10-30T10:28:01.124Z,23.50
2022-10-30T10:30:37.687Z,23.40
2022-10-30T10:33:17.454Z,23.50
2022-10-30T10:35:58.908Z,23.50
2022-10-30T10:38:33.750Z,23.30
2022-10-30T10:41:09.447Z,23.30
2022-10-30T10:43:46.205Z,23.30
2022-10-30T10:46:25.992Z,23.20
2022-10-30T10:49:12.145Z,23.30
2022-10-30T10:51:46.994Z,23.30
2022-10-30T10:54:19.906Z,23.30
2022-10-30T10:56:51.802Z,23.30
2022-10-30T10:59:23.457Z,23.30
2022-10-30T11:01:57.106Z,23.40
2022-10-30T11:04:34.489Z,23.40
2022-10-30T11:07:11.623Z,23.30
2022-10-30T11:09:45.038Z,23.30
2022-10-30T11:12:19.005Z,23.30
2022-10-30T11:14:53.097Z,23.40
2022-10-30T11:17:25.804Z,23.40
2022-10-30T11:20:04.305Z,23.40
2022-10-30T11:22:36.416Z,23.30
2022-10-30T11:25:25.344Z,23.40
2022-10-30T11:28:02.395Z,23.30
2022-10-30T11:30:36.069Z,23.30
2022-10-30T11:33:23.997Z,23.40
2022-10-30T11:35:58.158Z,23.30
2022-10-30T11:38:31.982Z,23.30
2022-10-30T11:41:06.298Z,23.30
2022-10-30T11:43:41.271Z,23.20
2022-10-30T11:46:15.904Z,23.20
2022-10-30T11:48:55.275Z,23.20
2022-10-30T11:51:39.574Z,23.20
2022-10-30T11:54:18.686Z,23.20
2022-10-30T11:56:52.522Z,23.20
2022-10-30T11:59:25.117Z,23.20
2022-10-30T12:02:03.139Z,23.10
2022-10-30T12:04:36.780Z,23.10
2022-10-30T12:07:17.857Z,23.10
2022-10-30T12:09:50.092Z,23.10
2022-10-30T12:12:25.638Z,23.10
2022-10-30T12:14:57.529Z,23.10
2022-10-30T12:17:29.337Z,23.10
2022-10-30T12:20:03.285Z,23.10
2022-10-30T12:22:41.480Z,23.10
2022-10-30T12:25:25.773Z,23.20
2022-10-30T12:28:01.418Z,23.20
2022-10-30T12:30:33.682Z,23.10
2022-10-30T12:33:07.561Z,23.10
2022-10-30T12:35:40.853Z,23.10
2022-10-30T12:38:16.962Z,23.10
2022-10-30T12:40:48.820Z,23.00
2022-10-30T12:43:22.919Z,23.00
2022-10-30T12:45:55.568Z,23.00
2022-10-30T12:48:30.124Z,23.00
2022-10-30T12:51:08.077Z,22.90
2022-10-30T12:53:45.889Z,22.90
2022-10-30T12:56:18.605Z,22.90
2022-10-30T12:58:51.389Z,22.80
2022-10-30T13:01:27.419Z,22.80
2022-10-30T13:04:04.336Z,22.80
2022-10-30T13:06:38.258Z,22.80
2022-10-30T13:09:16.153Z,22.70
2022-10-30T13:11:52.296Z,22.70
2022-10-30T13:14:29.304Z,22.70
2022-10-30T13:17:01.447Z,22.70
2022-10-30T13:19:33.134Z,22.70
2022-10-30T13:22:08.741Z,22.70
2022-10-30T13:24:48.110Z,22.70
2022-10-30T13:27:24.121Z,22.70
2022-10-30T13:30:01.758Z,22.70
2022-10-30T13:32:38.618Z,22.70
2022-10-30T13:35:20.670Z,22.70
2022-10-30T13:37:53.148Z,22.70
2022-10-30T13:40:32.644Z,22.70
2022-10-30T13:43:05.749Z,22.70
2022-10-30T13:45:43.182Z,22.60
2022-10-30T13:48:19.690Z,22.70
2022-10-30T13:51:01.784Z,22.70
2022-10-30T13:53:35.883Z,22.70
2022-10-30T13:56:11.064Z,22.60
2022-10-30T13:58:44.192Z,22.60
2022-10-30T14:01:19.214Z,22.60
2022-10-30T14:03:52.219Z,22.60
2022-10-30T14:06:28.242Z,22.60
2022-10-30T14:09:04.124Z,22.60
2022-10-30T14:11:41.084Z,22.60
2022-10-30T14:14:31.166Z,22.60
2022-10-30T14:17:12.634Z,22.60
2022-10-30T14:20:01.347Z,22.50
2022-10-30T14:22:36.216Z,22.50
2022-10-30T14:25:10.785Z,22.50
2022-10-30T14:27:46.730Z,22.50
2022-10-30T14:30:20.619Z,22.50
2022-10-30T14:32:54.779Z,22.40
2022-10-30T14:35:42.528Z,22.40
2022-10-30T14:38:24.749Z,22.40
2022-10-30T14:41:13.761Z,22.30
2022-10-30T14:43:51.320Z,22.30
2022-10-30T14:46:26.849Z,22.20
2022-10-30T14:49:02.778Z,22.20
2022-10-30T14:51:38.433Z,22.10
2022-10-30T14:54:18.157Z,22.00
2022-10-30T14:56:52.901Z,22.00
2022-10-30T14:59:33.618Z,21.90
2022-10-30T15:02:13.232Z,21.80
2022-10-30T15:04:52.559Z,21.80
2022-10-30T15:07:25.666Z,21.70
2022-10-30T15:10:03.085Z,21.60
2022-10-30T15:12:40.454Z,21.50
2022-10-30T15:15:17.375Z,21.40
2022-10-30T15:17:51.300Z,21.20
2022-10-30T15:20:26.232Z,21.20
2022-10-30T15:23:00.924Z,21.00
2022-10-30T15:25:35.245Z,20.90
2022-10-30T15:28:09.880Z,20.80
2022-10-30T15:30:46.164Z,20.80
2022-10-30T15:33:22.458Z,20.60
2022-10-30T15:35:56.187Z,20.50
2022-10-30T15:38:30.216Z,20.40
2022-10-30T15:41:04.615Z,20.40
2022-10-30T15:43:38.547Z,20.30
2022-10-30T15:46:14.730Z,20.30
2022-10-30T15:48:48.533Z,20.20
2022-10-30T15:51:23.314Z,20.10
2022-10-30T15:53:58.067Z,20.00
2022-10-30T15:56:32.629Z,20.00
2022-10-30T15:59:05.839Z,19.90
2022-10-30T16:01:45.841Z,19.80
2022-10-30T16:04:18.260Z,19.70
2022-10-30T16:06:52.468Z,19.60
2022-10-30T16:09:26.524Z,19.50
2022-10-30T16:12:00.893Z,19.50
2022-10-30T16:14:36.059Z,19.40
2022-10-30T16:17:12.820Z,19.30
2022-10-30T16:19:47.296Z,19.30
2022-10-30T16:22:22.527Z,19.20
2022-10-30T16:24:56.061Z,19.20
2022-10-30T16:27:30.351Z,19.10
2022-10-30T16:30:04.140Z,19.00
2022-10-30T16:32:40.709Z,18.90
2022-10-30T16:35:14.074Z,18.80
2022-10-30T16:37:48.234Z,18.70
2022-10-30T16:40:22.726Z,18.50
2022-10-30T16:42:58.465Z,18.40
2022-10-30T16:45:46.902Z,18.30
2022-10-30T16:48:28.196Z,18.20
2022-10-30T16:51:01.973Z,18.00
2022-10-30T16:53:34.158Z,17.90
2022-10-30T16:56:08.301Z,17.80
2022-10-30T16:58:42.341Z,17.80
2022-10-30T17:01:16.198Z,17.70
2022-10-30T17:03:52.746Z,17.70
2022-10-30T17:06:29.747Z,17.60
2022-10-30T17:09:03.139Z,17.50
2022-10-30T17:11:37.947Z,17.50
2022-10-30T17:14:18.985Z,17.40
2022-10-30T17:16:54.842Z,17.30
2022-10-30T17:19:27.906Z,17.20
2022-10-30T17:22:04.148Z,17.10
2022-10-30T17:24:38.462Z,17.00
2022-10-30T17:27:10.782Z,16.90
2022-10-30T17:29:47.655Z,16.80
2022-10-30T17:32:21.284Z,16.80
2022-10-30T17:35:00.519Z,16.70
2022-10-30T17:37:36.699Z,16.70
2022-10-30T17:40:10.748Z,16.60
2022-10-30T17:42:44.219Z,16.50
2022-10-30T17:45:18.268Z,16.50
2022-10-30T17:47:52.139Z,16.40
2022-10-30T17:50:26.119Z,16.30
2022-10-30T17:53:02.991Z,16.30
2022-10-30T17:55:37.152Z,16.20
2022-10-30T17:58:11.307Z,16.20
2022-10-30T18:00:45.225Z,16.20
2022-10-30T18:03:19.164Z,16.20
2022-10-30T18:05:53.169Z,16.10
2022-10-30T18:08:29.843Z,16.10
2022-10-30T18:11:03.108Z,16.00
2022-10-30T18:13:37.194Z,15.90
2022-10-30T18:16:12.117Z,15.80
2022-10-30T18:18:46.198Z,15.80
2022-10-30T18:21:20.511Z,15.80
2022-10-30T18:23:56.848Z,15.70
2022-10-30T18:26:30.583Z,15.60
2022-10-30T18:29:04.259Z,15.50
2022-10-30T18:31:38.175Z,15.50
2022-10-30T18:34:13.654Z,15.40
2022-10-30T18:36:47.129Z,15.30
2022-10-30T18:39:24.328Z,15.30
2022-10-30T18:41:58.240Z,15.20
2022-10-30T18:44:32.158Z,15.20
2022-10-30T18:47:08.281Z,15.20
2022-10-30T18:49:42.159Z,15.10
2022-10-30T18:52:16.172Z,15.10
2022-10-30T18:54:52.789Z,15.00
2022-10-30T18:57:26.116Z,14.90
2022-10-30T19:00:00.933Z,14.90
2022-10-30T19:02:33.287Z,14.80
2022-10-30T19:05:10.374Z,14.80
2022-10-30T19:07:44.227Z,14.70
2022-10-30T19:10:20.747Z,14.60
2022-10-30T19:13:11.449Z,14.60
2022-10-30T19:15:45.674Z,14.50
2022-10-30T19:18:19.380Z,14.40
2022-10-30T19:21:14.547Z,14.40
2022-10-30T19:23:47.293Z,14.30
2022-10-30T19:26:23.789Z,14.30
2022-10-30T19:28:57.173Z,14.20
2022-10-30T19:31:31.327Z,14.20
2022-10-30T19:34:05.334Z,14.10
2022-10-30T19:36:39.443Z,14.10
2022-10-30T19:39:13.374Z,14.00
2022-10-30T19:41:49.825Z,14.00
2022-10-30T19:44:23.342Z,14.00
2022-10-30T19:46:57.206Z,14.00
2022-10-30T19:49:31.513Z,13.90
2022-10-30T19:52:05.749Z,13.90
2022-10-30T19:54:39.229Z,13.90
2022-10-30T19:59:50.264Z,13.80
2022-10-30T20:02:24.247Z,13.80
2022-10-30T20:04:58.168Z,13.80
2022-10-30T20:07:32.256Z,13.60
2022-10-30T20:10:06.576Z,13.60
2022-10-30T20:12:42.815Z,13.50
2022-10-30T20:15:17.190Z,13.50
2022-10-30T20:17:51.161Z,13.40
2022-10-30T20:20:25.702Z,13.40
2022-10-30T20:22:59.193Z,13.40
2022-10-30T20:25:33.170Z,13.40
2022-10-30T20:28:14.388Z,13.30
2022-10-30T20:30:48.688Z,13.30
2022-10-30T20:33:22.246Z,13.30
2022-10-30T20:35:56.498Z,13.20
2022-10-30T20:38:30.691Z,13.20
2022-10-30T20:41:04.522Z,13.10
2022-10-30T20:43:40.986Z,13.00
2022-10-30T20:46:13.285Z,13.00
2022-10-30T20:48:47.183Z,12.90
2022-10-30T20:51:21.622Z,12.90
2022-10-30T20:53:55.175Z,12.90
2022-10-30T20:56:29.203Z,12.80
2022-10-30T20:59:05.916Z,12.80
2022-10-30T21:01:39.430Z,12.80
2022-10-30T21:04:13.162Z,12.80
2022-10-30T21:06:47.183Z,12.70
2022-10-30T21:09:21.236Z,12.70
2022-10-30T21:11:55.244Z,12.70
2022-10-30T21:14:31.849Z,12.70
2022-10-30T21:17:05.224Z,12.60
2022-10-30T21:19:39.174Z,12.60
2022-10-30T21:22:13.567Z,12.60
2022-10-30T21:24:47.212Z,12.50
2022-10-30T21:27:21.219Z,12.50
2022-10-30T21:29:57.831Z,12.40
2022-10-30T21:32:32.317Z,12.30
2022-10-30T21:35:06.380Z,12.30
2022-10-30T21:37:40.214Z,12.30
2022-10-30T21:40:15.228Z,12.30
2022-10-30T21:42:50.197Z,12.20
2022-10-30T21:45:27.779Z,12.20
2022-10-30T21:48:01.255Z,12.10
2022-10-30T21:50:35.594Z,12.00
2022-10-30T21:53:09.188Z,12.00
2022-10-30T21:55:43.180Z,11.90
2022-10-30T21:58:17.248Z,11.90
2022-10-30T22:00:53.958Z,11.90
2022-10-30T22:03:26.250Z,11.90
2022-10-30T22:06:00.214Z,11.80
2022-10-30T22:08:34.200Z,11.80
2022-10-30T22:11:06.599Z,11.80
2022-10-30T22:13:38.142Z,11.70
2022-10-30T22:16:14.065Z,11.70
2022-10-30T22:18:46.153Z,11.60
2022-10-30T22:21:20.265Z,11.60
2022-10-30T22:23:54.153Z,11.60
2022-10-30T22:26:28.238Z,11.60
2022-10-30T22:29:02.471Z,11.50
2022-10-30T22:31:38.838Z,11.50
2022-10-30T22:34:12.414Z,11.50
2022-10-30T22:36:47.034Z,11.50
2022-10-30T22:39:22.229Z,11.50
2022-10-30T22:41:56.122Z,11.50
2022-10-30T22:44:30.237Z,11.40
2022-10-30T22:47:06.914Z,11.50
2022-10-30T22:49:40.269Z,11.50
2022-10-30T22:52:14.211Z,11.40
2022-10-30T22:54:48.184Z,11.40
2022-10-30T22:57:22.177Z,11.40
2022-10-30T22:59:56.228Z,11.40
2022-10-30T23:02:32.766Z,11.30
2022-10-30T23:05:05.923Z,11.30
2022-10-30T23:07:39.194Z,11.20
2022-10-30T23:10:13.266Z,11.20
2022-10-30T23:12:47.168Z,11.20
2022-10-30T23:15:19.171Z,11.20
2022-10-30T23:17:56.153Z,11.10
2022-10-30T23:20:30.245Z,11.10
2022-10-30T23:23:04.208Z,11.10
2022-10-30T23:25:38.116Z,11.00
2022-10-30T23:28:10.443Z,11.00
2022-10-30T23:30:44.382Z,11.00
2022-10-30T23:33:20.920Z,10.90
2022-10-30T23:35:54.160Z,10.90
2022-10-30T23:38:28.147Z,10.90
2022-10-30T23:41:02.278Z,10.80
2022-10-30T23:43:36.183Z,10.80
2022-10-30T23:46:10.255Z,10.70
2022-10-30T23:48:46.834Z,10.70
2022-10-30T23:51:20.365Z,10.60
2022-10-30T23:53:54.195Z,10.60
2022-10-30T23:56:29.614Z,10.50
2022-10-30T23:59:03.297Z,10.50
